Rana Miller — WDE7064 — position and weather

sailwx.info

Track history (hours):
 
Tides and Currents Weather Stations Pressure Air Temp Water Temp Dewpoint Dewpoint Depression Visibility Wind Speed Wind Dir Waves Ship Positions

Rana Miller

Owner: Miller's Tug & Barge, Staten Island, NY. More information available from US FCC via Universal Licensing System and Coast Guard Vessel Documentation Center.

Last reported at 2018-Jan-18 15:00 UTC. Time now 2018-Jan-18 15:24 UTC.
Position N 40°38' W 074°04'.

Length 40 m; draft 3.1 m.

Type: Ship. MMSI: 367388520.

Date/timePositionNaut miles runAvg speedWind from/ knotsBaromVisibWave heightAir tempDewpointWater temp
2018-Jan-18 15:00N 40°38' W 074°04'0 0.0
2018-Jan-18 14:30N 40°38' W 074°04'0 0.0
2018-Jan-18 14:00N 40°38' W 074°04'0 0.0
2018-Jan-18 13:30N 40°38' W 074°04'0 0.0
2018-Jan-18 13:00N 40°38' W 074°04'0 0.0
2018-Jan-18 12:30N 40°38' W 074°04'0 0.0
2018-Jan-18 11:57N 40°38' W 074°04'0 0.0
2018-Jan-18 11:30N 40°38' W 074°04'0 0.0
2018-Jan-18 11:00N 40°38' W 074°04'0 0.0
2018-Jan-18 10:30N 40°38' W 074°04'0 0.0
2018-Jan-18 10:00N 40°38' W 074°04'0 0.0
2018-Jan-18 09:30N 40°38' W 074°04'0 0.0
2018-Jan-18 09:00N 40°38' W 074°04'0 0.0
2018-Jan-18 08:30N 40°38' W 074°04'0 0.0
2018-Jan-18 08:00N 40°38' W 074°04'0 0.0
2018-Jan-18 07:30N 40°38' W 074°04'0 0.0
2018-Jan-18 07:00N 40°38' W 074°04'0 0.0
2018-Jan-18 06:30N 40°38' W 074°04'0 0.0
2018-Jan-18 06:00N 40°38' W 074°04'0 0.0
2018-Jan-18 05:30N 40°38' W 074°04'0 0.0
2018-Jan-18 05:00N 40°38' W 074°04'0 0.0
2018-Jan-18 04:30N 40°38' W 074°04'0 0.0
2018-Jan-18 04:00N 40°38' W 074°04'0 0.0
2018-Jan-18 03:30N 40°38' W 074°04'0 0.0
2018-Jan-18 03:00N 40°38' W 074°04'0 0.0
2018-Jan-18 02:30N 40°38' W 074°04'0 0.0
2018-Jan-18 02:00N 40°38' W 074°04'0 0.0
2018-Jan-18 01:30N 40°38' W 074°04'0 0.0
2018-Jan-18 01:00N 40°38' W 074°04'0 0.0
2018-Jan-17 23:57N 40°38' W 074°04'  
2018-Jan-12 11:12N 39°47' W 073°60'2 7.9
2018-Jan-12 10:57N 39°45' W 074°00'4 8.0
2018-Jan-12 10:30N 39°42' W 074°02'5 8.0
2018-Jan-12 09:54N 39°38' W 074°06'32 7.9
2018-Jan-12 05:52N 39°08' W 074°21'3 8.2
2018-Jan-12 05:30N 39°05' W 074°22'47 1.9
2018-Jan-11 04:35N 38°19' W 074°29'0 0.8
2018-Jan-11 04:12N 38°19' W 074°29'1 0.9
2018-Jan-11 03:22N 38°19' W 074°28'0 0.9
2018-Jan-11 03:00N 38°19' W 074°27'3 1.0
2018-Jan-11 00:16N 38°17' W 074°26'0 1.0
2018-Jan-11 00:00N 38°17' W 074°26'12 1.4
2018-Jan-10 15:10N 38°27' W 074°35'1 1.9
2018-Jan-10 14:53N 38°28' W 074°35'2 5.2
2018-Jan-10 14:29N 38°30' W 074°34'7 8.5
2018-Jan-10 13:36N 38°37' W 074°34'1 8.4
2018-Jan-10 13:30N 38°38' W 074°34'5 8.5
2018-Jan-10 12:58N 38°43' W 074°34'4 8.7
2018-Jan-10 12:30N 38°46' W 074°33'4 8.7
2018-Jan-10 12:00N 38°51' W 074°33'4 8.6
2018-Jan-10 11:30N 38°55' W 074°32'41 8.6
2018-Jan-10 06:42N 39°32' W 074°10'2 8.6
2018-Jan-10 06:31N 39°34' W 074°09'4 8.5
2018-Jan-10 06:00N 39°38' W 074°06'4 8.5
2018-Jan-10 05:30N 39°41' W 074°03'4 8.4
2018-Jan-10 05:00N 39°45' W 074°01'51 6.7
2018-Jan-09 21:21N 40°36' W 074°03'2 7.0
2018-Jan-09 21:01N 40°38' W 074°04'0 0.3
2018-Jan-09 20:30N 40°38' W 074°04'0 0.0
2018-Jan-09 20:01N 40°38' W 074°04'0 0.0
2018-Jan-09 19:31N 40°38' W 074°04'0 0.0
2018-Jan-09 19:01N 40°38' W 074°04'0 0.1
2018-Jan-09 18:31N 40°38' W 074°04'0 0.0
2018-Jan-09 18:01N 40°38' W 074°04'0 0.0
2018-Jan-09 17:31N 40°38' W 074°04'0 0.0
2018-Jan-09 17:01N 40°38' W 074°04'0 0.0
2018-Jan-09 16:31N 40°38' W 074°04'0 0.0
2018-Jan-09 16:01N 40°38' W 074°04'0 0.0
2018-Jan-09 15:30N 40°38' W 074°04'0 0.0
2018-Jan-09 15:00N 40°38' W 074°04'0 0.0
2018-Jan-09 14:30N 40°38' W 074°04'0 0.0
2018-Jan-09 14:00N 40°38' W 074°04'0 0.0
2018-Jan-09 13:30N 40°38' W 074°04'0 0.0
2018-Jan-09 13:00N 40°38' W 074°04'0 0.0
2018-Jan-09 12:27N 40°38' W 074°04'0 0.0
2018-Jan-09 12:00N 40°38' W 074°04'0 0.0
2018-Jan-09 11:30N 40°38' W 074°04'0 0.0
2018-Jan-09 11:00N 40°38' W 074°04'0 0.0
2018-Jan-09 10:30N 40°38' W 074°04'0 0.0
2018-Jan-09 10:00N 40°38' W 074°04'0 0.0
2018-Jan-09 09:30N 40°38' W 074°04'0 0.0
2018-Jan-09 09:00N 40°38' W 074°04'0 0.0
2018-Jan-09 08:30N 40°38' W 074°04'0 0.0
2018-Jan-09 08:00N 40°38' W 074°04'0 0.0
2018-Jan-09 07:30N 40°38' W 074°04'0 0.0
2018-Jan-09 07:00N 40°38' W 074°04'0 0.0
2018-Jan-09 06:30N 40°38' W 074°04'0 0.0
2018-Jan-09 06:00N 40°38' W 074°04'0 0.0
2018-Jan-09 05:30N 40°38' W 074°04'0 0.0
2018-Jan-09 05:00N 40°38' W 074°04'0 0.0
2018-Jan-09 04:29N 40°38' W 074°04'0 0.0
2018-Jan-09 03:52N 40°38' W 074°04'0 0.0
2018-Jan-09 03:21N 40°38' W 074°04'0 0.0
2018-Jan-09 02:56N 40°38' W 074°04'0 0.0
2018-Jan-09 02:30N 40°38' W 074°04'0 0.0
2018-Jan-09 01:53N 40°38' W 074°04'0 0.0
2018-Jan-09 01:30N 40°38' W 074°04'0 0.0
2018-Jan-09 00:51N 40°38' W 074°04'0 0.0
2018-Jan-09 00:29N 40°38' W 074°04'0 0.0
2018-Jan-08 23:57N 40°38' W 074°04'0 0.0
2018-Jan-08 23:29N 40°38' W 074°04'0 0.0
2018-Jan-08 23:00N 40°38' W 074°04'0 0.0
2018-Jan-08 22:27N 40°38' W 074°04'0 0.0
2018-Jan-08 22:00N 40°38' W 074°04'0 0.0
2018-Jan-08 21:30N 40°38' W 074°04'0 0.0
2018-Jan-08 21:00N 40°38' W 074°04'0 0.0
2018-Jan-08 20:29N 40°38' W 074°04'0 0.0
2018-Jan-08 20:00N 40°38' W 074°04'0 0.0
2018-Jan-08 19:30N 40°38' W 074°04'0 0.0
2018-Jan-08 19:00N 40°38' W 074°04'0 0.0
2018-Jan-08 18:30N 40°38' W 074°04'0 0.0
2018-Jan-08 17:58N 40°38' W 074°04'0 0.0
2018-Jan-08 17:29N 40°38' W 074°04'0 0.0
2018-Jan-08 17:00N 40°38' W 074°04'0 0.0
2018-Jan-08 16:30N 40°38' W 074°04'0 0.0
2018-Jan-08 16:00N 40°38' W 074°04'0 0.0
2018-Jan-08 15:29N 40°38' W 074°04'0 0.0
2018-Jan-08 15:00N 40°38' W 074°04'  
Track history (hours):
 
Tides and Currents Weather Stations Pressure Air Temp Water Temp Dewpoint Dewpoint Depression Visibility Wind Speed Wind Dir Waves Ship Positions

Rana Miller

Owner: Miller's Tug & Barge, Staten Island, NY. More information available from US FCC via Universal Licensing System and Coast Guard Vessel Documentation Center.

Last reported at 2018-Jan-18 15:00 UTC. Time now 2018-Jan-18 15:24 UTC.
Position N 40°38' W 074°04'.

Length 40 m; draft 3.1 m.

Type: Ship. MMSI: 367388520.

Date/timePositionNaut miles runAvg speedWind from/ knotsBaromVisibWave heightAir tempDewpointWater temp
2018-Jan-18 15:00N 40°38' W 074°04'0 0.0
2018-Jan-18 14:30N 40°38' W 074°04'0 0.0
2018-Jan-18 14:00N 40°38' W 074°04'0 0.0
2018-Jan-18 13:30N 40°38' W 074°04'0 0.0
2018-Jan-18 13:00N 40°38' W 074°04'0 0.0
2018-Jan-18 12:30N 40°38' W 074°04'0 0.0
2018-Jan-18 11:57N 40°38' W 074°04'0 0.0
2018-Jan-18 11:30N 40°38' W 074°04'0 0.0
2018-Jan-18 11:00N 40°38' W 074°04'0 0.0
2018-Jan-18 10:30N 40°38' W 074°04'0 0.0
2018-Jan-18 10:00N 40°38' W 074°04'0 0.0
2018-Jan-18 09:30N 40°38' W 074°04'0 0.0
2018-Jan-18 09:00N 40°38' W 074°04'0 0.0
2018-Jan-18 08:30N 40°38' W 074°04'0 0.0
2018-Jan-18 08:00N 40°38' W 074°04'0 0.0
2018-Jan-18 07:30N 40°38' W 074°04'0 0.0
2018-Jan-18 07:00N 40°38' W 074°04'0 0.0
2018-Jan-18 06:30N 40°38' W 074°04'0 0.0
2018-Jan-18 06:00N 40°38' W 074°04'0 0.0
2018-Jan-18 05:30N 40°38' W 074°04'0 0.0
2018-Jan-18 05:00N 40°38' W 074°04'0 0.0
2018-Jan-18 04:30N 40°38' W 074°04'0 0.0
2018-Jan-18 04:00N 40°38' W 074°04'0 0.0
2018-Jan-18 03:30N 40°38' W 074°04'0 0.0
2018-Jan-18 03:00N 40°38' W 074°04'0 0.0
2018-Jan-18 02:30N 40°38' W 074°04'0 0.0
2018-Jan-18 02:00N 40°38' W 074°04'0 0.0
2018-Jan-18 01:30N 40°38' W 074°04'0 0.0
2018-Jan-18 01:00N 40°38' W 074°04'0 0.0
2018-Jan-17 23:57N 40°38' W 074°04'  
2018-Jan-12 11:12N 39°47' W 073°60'2 7.9
2018-Jan-12 10:57N 39°45' W 074°00'4 8.0
2018-Jan-12 10:30N 39°42' W 074°02'5 8.0
2018-Jan-12 09:54N 39°38' W 074°06'32 7.9
2018-Jan-12 05:52N 39°08' W 074°21'3 8.2
2018-Jan-12 05:30N 39°05' W 074°22'47 1.9
2018-Jan-11 04:35N 38°19' W 074°29'0 0.8
2018-Jan-11 04:12N 38°19' W 074°29'1 0.9
2018-Jan-11 03:22N 38°19' W 074°28'0 0.9
2018-Jan-11 03:00N 38°19' W 074°27'3 1.0
2018-Jan-11 00:16N 38°17' W 074°26'0 1.0
2018-Jan-11 00:00N 38°17' W 074°26'12 1.4
2018-Jan-10 15:10N 38°27' W 074°35'1 1.9
2018-Jan-10 14:53N 38°28' W 074°35'2 5.2
2018-Jan-10 14:29N 38°30' W 074°34'7 8.5
2018-Jan-10 13:36N 38°37' W 074°34'1 8.4
2018-Jan-10 13:30N 38°38' W 074°34'5 8.5
2018-Jan-10 12:58N 38°43' W 074°34'4 8.7
2018-Jan-10 12:30N 38°46' W 074°33'4 8.7
2018-Jan-10 12:00N 38°51' W 074°33'4 8.6
2018-Jan-10 11:30N 38°55' W 074°32'41 8.6
2018-Jan-10 06:42N 39°32' W 074°10'2 8.6
2018-Jan-10 06:31N 39°34' W 074°09'4 8.5
2018-Jan-10 06:00N 39°38' W 074°06'4 8.5
2018-Jan-10 05:30N 39°41' W 074°03'4 8.4
2018-Jan-10 05:00N 39°45' W 074°01'51 6.7
2018-Jan-09 21:21N 40°36' W 074°03'2 7.0
2018-Jan-09 21:01N 40°38' W 074°04'0 0.3
2018-Jan-09 20:30N 40°38' W 074°04'0 0.0
2018-Jan-09 20:01N 40°38' W 074°04'0 0.0
2018-Jan-09 19:31N 40°38' W 074°04'0 0.0
2018-Jan-09 19:01N 40°38' W 074°04'0 0.1
2018-Jan-09 18:31N 40°38' W 074°04'0 0.0
2018-Jan-09 18:01N 40°38' W 074°04'0 0.0
2018-Jan-09 17:31N 40°38' W 074°04'0 0.0
2018-Jan-09 17:01N 40°38' W 074°04'0 0.0
2018-Jan-09 16:31N 40°38' W 074°04'0 0.0
2018-Jan-09 16:01N 40°38' W 074°04'0 0.0
2018-Jan-09 15:30N 40°38' W 074°04'0 0.0
2018-Jan-09 15:00N 40°38' W 074°04'0 0.0
2018-Jan-09 14:30N 40°38' W 074°04'0 0.0
2018-Jan-09 14:00N 40°38' W 074°04'0 0.0
2018-Jan-09 13:30N 40°38' W 074°04'0 0.0
2018-Jan-09 13:00N 40°38' W 074°04'0 0.0
2018-Jan-09 12:27N 40°38' W 074°04'0 0.0
2018-Jan-09 12:00N 40°38' W 074°04'0 0.0
2018-Jan-09 11:30N 40°38' W 074°04'0 0.0
2018-Jan-09 11:00N 40°38' W 074°04'0 0.0
2018-Jan-09 10:30N 40°38' W 074°04'0 0.0
2018-Jan-09 10:00N 40°38' W 074°04'0 0.0
2018-Jan-09 09:30N 40°38' W 074°04'0 0.0
2018-Jan-09 09:00N 40°38' W 074°04'0 0.0
2018-Jan-09 08:30N 40°38' W 074°04'0 0.0
2018-Jan-09 08:00N 40°38' W 074°04'0 0.0
2018-Jan-09 07:30N 40°38' W 074°04'0 0.0
2018-Jan-09 07:00N 40°38' W 074°04'0 0.0
2018-Jan-09 06:30N 40°38' W 074°04'0 0.0
2018-Jan-09 06:00N 40°38' W 074°04'0 0.0
2018-Jan-09 05:30N 40°38' W 074°04'0 0.0
2018-Jan-09 05:00N 40°38' W 074°04'0 0.0
2018-Jan-09 04:29N 40°38' W 074°04'0 0.0
2018-Jan-09 03:52N 40°38' W 074°04'0 0.0
2018-Jan-09 03:21N 40°38' W 074°04'0 0.0
2018-Jan-09 02:56N 40°38' W 074°04'0 0.0
2018-Jan-09 02:30N 40°38' W 074°04'0 0.0
2018-Jan-09 01:53N 40°38' W 074°04'0 0.0
2018-Jan-09 01:30N 40°38' W 074°04'0 0.0
2018-Jan-09 00:51N 40°38' W 074°04'0 0.0
2018-Jan-09 00:29N 40°38' W 074°04'0 0.0
2018-Jan-08 23:57N 40°38' W 074°04'0 0.0
2018-Jan-08 23:29N 40°38' W 074°04'0 0.0
2018-Jan-08 23:00N 40°38' W 074°04'0 0.0
2018-Jan-08 22:27N 40°38' W 074°04'0 0.0
2018-Jan-08 22:00N 40°38' W 074°04'0 0.0
2018-Jan-08 21:30N 40°38' W 074°04'0 0.0
2018-Jan-08 21:00N 40°38' W 074°04'0 0.0
2018-Jan-08 20:29N 40°38' W 074°04'0 0.0
2018-Jan-08 20:00N 40°38' W 074°04'0 0.0
2018-Jan-08 19:30N 40°38' W 074°04'0 0.0
2018-Jan-08 19:00N 40°38' W 074°04'0 0.0
2018-Jan-08 18:30N 40°38' W 074°04'0 0.0
2018-Jan-08 17:58N 40°38' W 074°04'0 0.0
2018-Jan-08 17:29N 40°38' W 074°04'0 0.0
2018-Jan-08 17:00N 40°38' W 074°04'0 0.0
2018-Jan-08 16:30N 40°38' W 074°04'0 0.0
2018-Jan-08 16:00N 40°38' W 074°04'0 0.0
2018-Jan-08 15:29N 40°38' W 074°04'0 0.0
2018-Jan-08 15:00N 40°38' W 074°04'  

Dump ship's entire track history